createdAt,value
2023-03-02T00:01:52.717Z,94591.38
2023-03-02T00:04:41.236Z,94596.38
2023-03-02T00:07:11.397Z,94586.91
2023-03-02T00:09:38.746Z,94583.25
2023-03-02T00:12:07.001Z,94602.88
2023-03-02T00:14:33.780Z,94565.91
2023-03-02T00:17:00.511Z,94566.72
2023-03-02T00:19:27.593Z,94562.81
2023-03-02T00:21:54.305Z,94570.75
2023-03-02T00:24:21.476Z,94572.38
2023-03-02T00:26:49.518Z,94594.75
2023-03-02T00:29:16.390Z,94582.81
2023-03-02T00:31:43.127Z,94572.59
2023-03-02T00:34:10.086Z,94574.56
2023-03-02T00:36:36.941Z,94567.00
2023-03-02T00:39:04.831Z,94562.25
2023-03-02T00:41:31.712Z,94526.19
2023-03-02T00:43:58.409Z,94547.34
2023-03-02T00:46:26.541Z,94565.72
2023-03-02T00:48:53.658Z,94583.13
2023-03-02T00:51:20.828Z,94595.59
2023-03-02T00:53:47.577Z,94573.06
2023-03-02T00:56:14.634Z,94561.75
2023-03-02T00:58:47.099Z,94581.31
2023-03-02T01:01:14.133Z,94581.00
2023-03-02T01:03:46.225Z,94561.47
2023-03-02T01:06:19.534Z,94562.13
2023-03-02T01:08:46.897Z,94557.66
2023-03-02T01:11:16.326Z,94582.44
2023-03-02T01:13:43.662Z,94566.31
2023-03-02T01:16:12.025Z,94549.69
2023-03-02T01:18:39.538Z,94541.94
2023-03-02T01:21:12.236Z,94570.72
2023-03-02T01:23:39.085Z,94562.94
2023-03-02T01:26:06.027Z,94542.94
2023-03-02T01:28:32.804Z,94544.25
2023-03-02T01:31:01.372Z,94530.06
2023-03-02T01:33:28.560Z,94556.91
2023-03-02T01:35:55.588Z,94544.16
2023-03-02T01:38:22.433Z,94550.88
2023-03-02T01:40:49.154Z,94548.59
2023-03-02T01:43:16.685Z,94576.00
2023-03-02T01:45:55.685Z,94575.41
2023-03-02T01:48:34.076Z,94569.28
2023-03-02T01:51:02.972Z,94562.16
2023-03-02T01:53:32.202Z,94560.13
2023-03-02T01:56:01.687Z,94560.06
2023-03-02T01:58:34.449Z,94564.41
2023-03-02T02:01:01.609Z,94557.59
2023-03-02T02:03:31.264Z,94560.47
2023-03-02T02:06:12.675Z,94567.56
2023-03-02T02:08:39.907Z,94562.63
2023-03-02T02:11:07.177Z,94554.25
2023-03-02T02:13:33.994Z,94552.00
2023-03-02T02:16:00.833Z,94570.53
2023-03-02T02:18:27.622Z,94551.72
2023-03-02T02:20:55.710Z,94562.56
2023-03-02T02:23:27.593Z,94539.47
2023-03-02T02:26:01.953Z,94550.50
2023-03-02T02:28:34.440Z,94528.06
2023-03-02T02:31:16.403Z,94535.41
2023-03-02T02:33:47.157Z,94512.47
2023-03-02T02:36:21.597Z,94508.22
2023-03-02T02:38:51.956Z,94512.78
2023-03-02T02:41:27.729Z,94513.25
2023-03-02T02:43:55.604Z,94518.94
2023-03-02T02:46:23.748Z,94514.69
2023-03-02T02:48:50.905Z,94511.13
2023-03-02T02:51:23.781Z,94507.81
2023-03-02T02:54:00.139Z,94520.78
2023-03-02T02:56:37.536Z,94512.94
2023-03-02T02:59:19.660Z,94509.91
2023-03-02T03:01:48.521Z,94504.53
2023-03-02T03:04:20.361Z,94502.13
2023-03-02T03:06:53.668Z,94502.16
2023-03-02T03:09:21.751Z,94495.94
2023-03-02T03:11:52.728Z,94515.53
2023-03-02T03:14:25.415Z,94493.78
2023-03-02T03:16:54.196Z,94498.69
2023-03-02T03:19:32.368Z,94489.09
2023-03-02T03:22:02.098Z,94474.88
2023-03-02T03:24:34.804Z,94474.19
2023-03-02T03:27:05.496Z,94494.75
2023-03-02T03:29:35.763Z,94488.75
2023-03-02T03:32:05.365Z,94499.03
2023-03-02T03:34:33.485Z,94505.84
2023-03-02T03:37:01.827Z,94505.56
2023-03-02T03:39:32.286Z,94489.13
2023-03-02T03:41:59.602Z,94497.81
2023-03-02T03:44:26.776Z,94512.78
2023-03-02T03:46:55.382Z,94526.75
2023-03-02T03:49:23.077Z,94519.72
2023-03-02T03:51:50.126Z,94513.03
2023-03-02T03:54:16.954Z,94519.53
2023-03-02T03:56:46.604Z,94500.78
2023-03-02T03:59:20.332Z,94495.88
2023-03-02T04:01:58.555Z,94492.81
2023-03-02T04:04:32.483Z,94510.44
2023-03-02T04:07:00.135Z,94518.41
2023-03-02T04:09:27.213Z,94508.72
2023-03-02T04:11:55.767Z,94505.16
2023-03-02T04:14:24.952Z,94507.19
2023-03-02T04:16:53.316Z,94514.53
2023-03-02T04:19:22.359Z,94509.75
2023-03-02T04:21:54.523Z,94528.81
2023-03-02T04:24:23.477Z,94534.81
2023-03-02T04:26:52.547Z,94516.97
2023-03-02T04:29:20.616Z,94525.03
2023-03-02T04:31:48.567Z,94523.13
2023-03-02T04:34:16.585Z,94507.78
2023-03-02T04:36:45.442Z,94513.31
2023-03-02T04:39:16.300Z,94511.41
2023-03-02T04:41:47.699Z,94520.13
2023-03-02T04:44:15.778Z,94513.59
2023-03-02T04:46:44.967Z,94524.75
2023-03-02T04:49:12.828Z,94538.75
2023-03-02T04:51:43.341Z,94521.69
2023-03-02T04:54:20.739Z,94542.97
2023-03-02T04:56:48.742Z,94530.84
2023-03-02T04:59:16.757Z,94503.47
2023-03-02T05:01:45.095Z,94507.53
2023-03-02T05:04:12.682Z,94522.44
2023-03-02T05:06:39.734Z,94517.88
2023-03-02T05:09:07.797Z,94520.00
2023-03-02T05:11:35.073Z,94511.94
2023-03-02T05:14:04.561Z,94503.91
2023-03-02T05:16:33.545Z,94515.22
2023-03-02T05:19:02.181Z,94527.25
2023-03-02T05:21:29.227Z,94535.03
2023-03-02T05:23:56.564Z,94536.75
2023-03-02T05:26:24.005Z,94549.53
2023-03-02T05:28:52.968Z,94542.28
2023-03-02T05:31:29.831Z,94541.28
2023-03-02T05:33:57.241Z,94530.41
2023-03-02T05:36:24.536Z,94539.09
2023-03-02T05:38:51.655Z,94525.78
2023-03-02T05:41:18.444Z,94527.44
2023-03-02T05:43:45.518Z,94517.03
2023-03-02T05:46:12.956Z,94527.47
2023-03-02T05:48:39.693Z,94535.06
2023-03-02T05:51:06.449Z,94539.97
2023-03-02T05:53:33.277Z,94539.44
2023-03-02T05:56:00.047Z,94537.00
2023-03-02T05:58:27.134Z,94546.13
2023-03-02T06:00:54.177Z,94535.84
2023-03-02T06:03:21.039Z,94533.44
2023-03-02T06:05:50.973Z,94540.31
2023-03-02T06:08:19.683Z,94547.44
2023-03-02T06:10:46.497Z,94539.19
2023-03-02T06:13:13.314Z,94553.38
2023-03-02T06:15:40.893Z,94555.91
2023-03-02T06:18:07.602Z,94561.78
2023-03-02T06:20:34.490Z,94570.53
2023-03-02T06:23:01.356Z,94567.31
2023-03-02T06:25:28.668Z,94573.88
2023-03-02T06:27:55.374Z,94556.44
2023-03-02T06:30:25.836Z,94567.19
2023-03-02T06:32:52.738Z,94563.41
2023-03-02T06:35:20.083Z,94559.53
2023-03-02T06:37:47.056Z,94563.81
2023-03-02T06:40:15.000Z,94568.91
2023-03-02T06:42:42.924Z,94577.16
2023-03-02T06:45:10.777Z,94575.88
2023-03-02T06:47:37.973Z,94573.56
2023-03-02T06:50:06.085Z,94539.69
2023-03-02T06:52:33.414Z,94563.78
2023-03-02T06:55:00.334Z,94549.91
2023-03-02T06:57:33.829Z,94538.63
2023-03-02T07:00:02.713Z,94515.56
2023-03-02T07:02:30.443Z,94531.69
2023-03-02T07:04:57.450Z,94524.09
2023-03-02T07:07:24.260Z,94543.50
2023-03-02T07:09:51.000Z,94542.19
2023-03-02T07:12:17.860Z,94533.38
2023-03-02T07:14:45.625Z,94548.66
2023-03-02T07:17:12.549Z,94532.59
2023-03-02T07:19:40.876Z,94546.00
2023-03-02T07:22:07.884Z,94529.31
2023-03-02T07:24:34.778Z,94552.13
2023-03-02T07:27:02.009Z,94547.75
2023-03-02T07:29:28.978Z,94536.25
2023-03-02T07:31:59.348Z,94527.75
2023-03-02T07:34:26.652Z,94534.03
2023-03-02T07:36:54.229Z,94524.06
2023-03-02T07:39:21.022Z,94538.94
2023-03-02T07:41:47.733Z,94535.09
2023-03-02T07:44:15.637Z,94542.56
2023-03-02T07:46:43.012Z,94554.72
2023-03-02T07:49:09.732Z,94555.13
2023-03-02T07:51:36.406Z,94541.00
2023-03-02T07:54:05.061Z,94564.19
2023-03-02T07:56:32.195Z,94560.22
2023-03-02T07:58:59.161Z,94577.09
2023-03-02T08:01:25.977Z,94565.19
2023-03-02T08:03:52.733Z,94564.44
2023-03-02T08:06:19.955Z,94573.22
2023-03-02T08:08:47.153Z,94575.00
2023-03-02T08:11:18.420Z,94600.94
2023-03-02T08:13:46.132Z,94592.28
2023-03-02T08:16:14.749Z,94587.56
2023-03-02T08:18:43.342Z,94588.56
2023-03-02T08:21:19.458Z,94583.63
2023-03-02T08:23:46.681Z,94603.53
2023-03-02T08:26:16.462Z,94587.63
2023-03-02T08:28:44.634Z,94591.09
2023-03-02T08:31:12.444Z,94593.81
2023-03-02T08:33:39.263Z,94589.16
2023-03-02T08:36:11.144Z,94587.28
2023-03-02T08:38:37.998Z,94597.06
2023-03-02T08:41:07.285Z,94613.50
2023-03-02T08:43:34.487Z,94619.53
2023-03-02T08:46:02.239Z,94608.91
2023-03-02T08:48:29.548Z,94604.56
2023-03-02T08:51:03.979Z,94612.63
2023-03-02T08:53:34.596Z,94624.63
2023-03-02T08:56:01.701Z,94617.22
2023-03-02T08:58:29.350Z,94621.97
2023-03-02T09:00:56.482Z,94613.72
2023-03-02T09:03:23.350Z,94626.34
2023-03-02T09:05:51.084Z,94621.41
2023-03-02T09:08:17.834Z,94624.06
2023-03-02T09:10:44.827Z,94632.72
2023-03-02T09:13:13.136Z,94641.25
2023-03-02T09:15:40.204Z,94633.78
2023-03-02T09:18:07.035Z,94655.28
2023-03-02T09:20:34.761Z,94635.53
2023-03-02T09:23:01.579Z,94648.34
2023-03-02T09:25:28.328Z,94649.69
2023-03-02T09:27:55.311Z,94637.69
2023-03-02T09:30:22.227Z,94663.63
2023-03-02T09:32:49.240Z,94654.34
2023-03-02T09:35:16.706Z,94668.25
2023-03-02T09:37:44.629Z,94642.19
2023-03-02T09:40:23.861Z,94660.97
2023-03-02T09:43:19.832Z,94645.78
2023-03-02T09:45:58.968Z,94650.94
2023-03-02T09:48:28.357Z,94671.72
2023-03-02T09:51:09.749Z,94661.41
2023-03-02T09:53:43.687Z,94664.53
2023-03-02T09:56:17.328Z,94673.53
2023-03-02T09:58:52.243Z,94663.44
2023-03-02T10:01:32.876Z,94668.16
2023-03-02T10:04:13.772Z,94679.19
2023-03-02T10:06:40.709Z,94683.19
2023-03-02T10:09:09.704Z,94677.84
2023-03-02T10:11:55.023Z,94680.91
2023-03-02T10:14:30.726Z,94671.88
2023-03-02T10:17:23.708Z,94682.34
2023-03-02T10:19:56.900Z,94678.88
2023-03-02T10:22:38.341Z,94676.69
2023-03-02T10:25:35.634Z,94665.59
2023-03-02T10:28:17.016Z,94693.53
2023-03-02T10:30:47.259Z,94691.66
2023-03-02T10:33:17.550Z,94691.53
2023-03-02T10:35:48.354Z,94696.25
2023-03-02T10:38:18.607Z,94707.50
2023-03-02T10:41:00.065Z,94696.63
2023-03-02T10:43:45.789Z,94678.41
2023-03-02T10:46:14.306Z,94711.44
2023-03-02T10:48:59.805Z,94724.38
2023-03-02T10:51:37.581Z,94689.91
2023-03-02T10:54:07.082Z,94697.22
2023-03-02T10:56:34.633Z,94687.31
2023-03-02T10:59:04.490Z,94693.44
2023-03-02T11:01:32.653Z,94709.91
2023-03-02T11:04:02.645Z,94710.59
2023-03-02T11:06:30.617Z,94698.16
2023-03-02T11:09:01.233Z,94715.63
2023-03-02T11:11:28.264Z,94699.84
2023-03-02T11:13:57.037Z,94715.72
2023-03-02T11:16:32.818Z,94709.25
2023-03-02T11:19:13.175Z,94711.56
2023-03-02T11:21:58.581Z,94709.81
2023-03-02T11:24:41.518Z,94704.06
2023-03-02T11:27:25.007Z,94696.03
2023-03-02T11:30:04.301Z,94689.94
2023-03-02T11:32:45.746Z,94694.84
2023-03-02T11:35:22.859Z,94718.41
2023-03-02T11:37:55.199Z,94700.75
2023-03-02T11:40:47.214Z,94695.78
2023-03-02T11:43:14.498Z,94702.63
2023-03-02T11:45:46.533Z,94700.81
2023-03-02T11:48:24.884Z,94662.94
2023-03-02T11:51:20.860Z,94704.06
2023-03-02T11:54:04.139Z,94695.06
2023-03-02T11:56:35.082Z,94698.84
2023-03-02T11:59:13.349Z,94702.97
2023-03-02T12:01:40.477Z,94691.53
2023-03-02T12:04:11.903Z,94696.47
2023-03-02T12:06:42.155Z,94692.50
2023-03-02T12:09:31.150Z,94685.75
2023-03-02T12:12:14.964Z,94715.69
2023-03-02T12:14:42.512Z,94672.47
2023-03-02T12:17:20.631Z,94683.84
2023-03-02T12:19:48.601Z,94673.69
2023-03-02T12:22:29.507Z,94653.75
2023-03-02T12:25:20.928Z,94690.28
2023-03-02T12:27:51.512Z,94685.47
2023-03-02T12:30:23.626Z,94665.75
2023-03-02T12:33:10.733Z,94698.88
2023-03-02T12:35:37.986Z,94672.34
2023-03-02T12:38:37.305Z,94677.25
2023-03-02T12:41:26.091Z,94669.16
2023-03-02T12:44:09.748Z,94681.19
2023-03-02T12:46:37.644Z,94660.91
2023-03-02T12:49:08.752Z,94680.19
2023-03-02T12:51:58.925Z,94675.66
2023-03-02T12:54:31.217Z,94668.75
2023-03-02T12:57:16.071Z,94673.78
2023-03-02T12:59:44.191Z,94656.06
2023-03-02T13:02:20.280Z,94663.34
2023-03-02T13:04:59.557Z,94659.06
2023-03-02T13:07:34.511Z,94666.00
2023-03-02T13:10:07.252Z,94653.47
2023-03-02T13:12:36.066Z,94656.25
2023-03-02T13:15:03.522Z,94661.00
2023-03-02T13:17:32.609Z,94660.06
2023-03-02T13:20:01.438Z,94663.66
2023-03-02T13:22:29.573Z,94644.13
2023-03-02T13:24:59.121Z,94645.97
2023-03-02T13:27:26.688Z,94649.00
2023-03-02T13:29:55.667Z,94621.53
2023-03-02T13:32:35.262Z,94632.56
2023-03-02T13:35:03.637Z,94641.81
2023-03-02T13:37:38.827Z,94640.88
2023-03-02T13:40:30.223Z,94647.84
2023-03-02T13:42:57.907Z,94648.69
2023-03-02T13:45:24.737Z,94637.53
2023-03-02T13:47:52.421Z,94613.56
2023-03-02T13:50:21.880Z,94643.41
2023-03-02T13:52:50.288Z,94641.19
2023-03-02T13:55:20.298Z,94616.59
2023-03-02T13:57:49.297Z,94629.78
2023-03-02T14:00:22.785Z,94653.31
2023-03-02T14:02:50.502Z,94624.91
2023-03-02T14:05:20.811Z,94583.44
2023-03-02T14:07:47.837Z,94615.25
2023-03-02T14:10:17.222Z,94595.19
2023-03-02T14:13:01.006Z,94585.25
2023-03-02T14:15:28.122Z,94614.81
2023-03-02T14:17:54.945Z,94584.94
2023-03-02T14:20:21.664Z,94601.38
2023-03-02T14:22:50.562Z,94599.69
2023-03-02T14:25:17.986Z,94592.59
2023-03-02T14:27:47.199Z,94593.66
2023-03-02T14:30:19.655Z,94569.78
2023-03-02T14:32:47.405Z,94587.09
2023-03-02T14:35:16.751Z,94583.88
2023-03-02T14:37:47.238Z,94579.44
2023-03-02T14:40:33.540Z,94581.50
2023-03-02T14:43:00.306Z,94572.84
2023-03-02T14:45:28.834Z,94580.31
2023-03-02T14:47:57.470Z,94574.78
2023-03-02T14:50:24.161Z,94579.47
2023-03-02T14:52:57.777Z,94575.22
2023-03-02T14:55:29.988Z,94575.03
2023-03-02T14:58:04.852Z,94573.28
2023-03-02T15:00:32.113Z,94576.06
2023-03-02T15:02:59.623Z,94565.41
2023-03-02T15:05:26.461Z,94570.22
2023-03-02T15:07:53.816Z,94575.75
2023-03-02T15:10:22.124Z,94568.25
2023-03-02T15:12:49.811Z,94551.59
2023-03-02T15:15:17.268Z,94559.28
2023-03-02T15:17:44.048Z,94552.31
2023-03-02T15:20:15.406Z,94562.16
2023-03-02T15:22:42.338Z,94582.31
2023-03-02T15:25:09.487Z,94583.34
2023-03-02T15:27:36.470Z,94588.81
2023-03-02T15:30:03.884Z,94604.69
2023-03-02T15:32:30.696Z,94576.06
2023-03-02T15:34:57.710Z,94553.59
2023-03-02T15:37:24.428Z,94570.66
2023-03-02T15:39:56.125Z,94579.94
2023-03-02T15:42:23.704Z,94553.13
2023-03-02T15:44:50.567Z,94562.06
2023-03-02T15:47:17.869Z,94587.53
2023-03-02T15:49:45.011Z,94597.34
2023-03-02T15:52:12.556Z,94590.19
2023-03-02T15:54:40.018Z,94596.06
2023-03-02T15:57:07.355Z,94591.78
2023-03-02T15:59:34.168Z,94569.44
2023-03-02T16:02:02.405Z,94592.81
2023-03-02T16:04:31.018Z,94594.56
2023-03-02T16:06:58.338Z,94587.91
2023-03-02T16:09:26.261Z,94601.44
2023-03-02T16:11:53.040Z,94605.63
2023-03-02T16:14:20.559Z,94582.63
2023-03-02T16:16:47.669Z,94597.34
2023-03-02T16:19:18.977Z,94614.88
2023-03-02T16:21:47.203Z,94593.66
2023-03-02T16:24:16.172Z,94601.84
2023-03-02T16:26:43.131Z,94608.38
2023-03-02T16:29:11.877Z,94596.88
2023-03-02T16:31:39.341Z,94607.06
2023-03-02T16:34:08.889Z,94580.53
2023-03-02T16:36:40.567Z,94612.94
2023-03-02T16:39:08.799Z,94600.84
2023-03-02T16:41:36.908Z,94594.50
2023-03-02T16:44:04.244Z,94608.00
2023-03-02T16:46:36.397Z,94628.72
2023-03-02T16:49:04.712Z,94623.03
2023-03-02T16:51:32.205Z,94615.50
2023-03-02T16:53:59.117Z,94610.09
2023-03-02T16:56:26.426Z,94599.25
2023-03-02T16:58:53.173Z,94623.50
2023-03-02T17:01:21.303Z,94620.13
2023-03-02T17:03:49.964Z,94632.53
2023-03-02T17:06:22.715Z,94628.84
2023-03-02T17:08:51.171Z,94610.00
2023-03-02T17:11:19.672Z,94613.13
2023-03-02T17:13:46.798Z,94618.06
2023-03-02T17:16:13.964Z,94622.56
2023-03-02T17:18:41.104Z,94624.50
2023-03-02T17:21:08.450Z,94638.84
2023-03-02T17:23:37.222Z,94642.56
2023-03-02T17:26:04.276Z,94623.09
2023-03-02T17:28:31.439Z,94639.81
2023-03-02T17:30:59.197Z,94625.44
2023-03-02T17:33:26.293Z,94631.16
2023-03-02T17:35:52.998Z,94632.88
2023-03-02T17:38:20.145Z,94626.84
2023-03-02T17:40:46.868Z,94613.22
2023-03-02T17:43:13.645Z,94639.09
2023-03-02T17:45:40.373Z,94635.56
2023-03-02T17:48:07.622Z,94661.47
2023-03-02T17:50:34.976Z,94657.34
2023-03-02T17:53:02.989Z,94662.47
2023-03-02T17:55:30.047Z,94667.81
2023-03-02T17:57:56.764Z,94673.94
2023-03-02T18:00:24.389Z,94653.91
2023-03-02T18:02:52.197Z,94670.16
2023-03-02T18:05:19.330Z,94672.88
2023-03-02T18:07:46.376Z,94657.06
2023-03-02T18:10:14.029Z,94682.63
2023-03-02T18:12:40.843Z,94662.28
2023-03-02T18:15:08.933Z,94665.59
2023-03-02T18:17:35.628Z,94681.66
2023-03-02T18:20:02.493Z,94649.75
2023-03-02T18:22:29.347Z,94660.00
2023-03-02T18:24:56.148Z,94677.50
2023-03-02T18:27:23.296Z,94694.78
2023-03-02T18:29:50.321Z,94694.16
2023-03-02T18:32:17.410Z,94665.91
2023-03-02T18:34:44.516Z,94668.44
2023-03-02T18:37:11.293Z,94671.56
2023-03-02T18:39:38.463Z,94680.25
2023-03-02T18:42:07.244Z,94655.59
2023-03-02T18:44:34.734Z,94660.84
2023-03-02T18:47:02.136Z,94664.47
2023-03-02T18:49:29.088Z,94675.28
2023-03-02T18:51:56.854Z,94661.13
2023-03-02T18:54:24.131Z,94661.16
2023-03-02T18:56:51.073Z,94650.47
2023-03-02T18:59:18.471Z,94645.34
2023-03-02T19:01:46.281Z,94654.03
2023-03-02T19:04:14.398Z,94685.97
2023-03-02T19:06:42.885Z,94673.25
2023-03-02T19:09:10.537Z,94674.75
2023-03-02T19:11:37.686Z,94693.25
2023-03-02T19:14:04.836Z,94695.66
2023-03-02T19:16:32.300Z,94683.69
2023-03-02T19:18:59.261Z,94670.94
2023-03-02T19:21:26.093Z,94673.44
2023-03-02T19:23:53.381Z,94693.03
2023-03-02T19:26:20.419Z,94671.53
2023-03-02T19:28:47.549Z,94675.81
2023-03-02T19:31:14.993Z,94670.97
2023-03-02T19:33:42.803Z,94679.78
2023-03-02T19:36:10.065Z,94690.63
2023-03-02T19:38:41.442Z,94688.91
2023-03-02T19:41:10.556Z,94688.75
2023-03-02T19:43:37.751Z,94717.34
2023-03-02T19:46:05.306Z,94717.09
2023-03-02T19:48:34.109Z,94729.84
2023-03-02T19:51:00.961Z,94724.44
2023-03-02T19:53:28.348Z,94733.22
2023-03-02T19:56:00.401Z,94752.50
2023-03-02T19:58:28.542Z,94741.31
2023-03-02T20:00:55.344Z,94755.56
2023-03-02T20:03:22.972Z,94755.72
2023-03-02T20:05:50.407Z,94760.25
2023-03-02T20:08:17.645Z,94757.72
2023-03-02T20:10:46.805Z,94742.75
2023-03-02T20:13:14.053Z,94724.56
2023-03-02T20:15:44.517Z,94734.69
2023-03-02T20:18:18.834Z,94734.94
2023-03-02T20:20:47.174Z,94734.59
2023-03-02T20:23:14.433Z,94728.38
2023-03-02T20:25:41.323Z,94725.97
2023-03-02T20:28:11.807Z,94729.50
2023-03-02T20:30:54.696Z,94723.63
2023-03-02T20:33:27.020Z,94713.84
2023-03-02T20:35:55.030Z,94729.44
2023-03-02T20:38:29.418Z,94724.03
2023-03-02T20:40:56.647Z,94721.63
2023-03-02T20:43:23.591Z,94731.03
2023-03-02T20:45:50.728Z,94717.97
2023-03-02T20:48:18.613Z,94720.97
2023-03-02T20:50:45.467Z,94699.78
2023-03-02T20:53:12.387Z,94722.19
2023-03-02T20:55:39.902Z,94730.13
2023-03-02T20:58:06.942Z,94723.34
2023-03-02T21:00:36.020Z,94709.91
2023-03-02T21:03:04.123Z,94724.53
2023-03-02T21:05:32.435Z,94723.09
2023-03-02T21:08:00.173Z,94714.34
2023-03-02T21:10:36.648Z,94713.69
2023-03-02T21:13:06.039Z,94727.69
2023-03-02T21:15:33.672Z,94716.19
2023-03-02T21:18:00.487Z,94688.06
2023-03-02T21:20:30.742Z,94717.78
2023-03-02T21:22:57.888Z,94712.66
2023-03-02T21:25:25.922Z,94737.78
2023-03-02T21:27:52.775Z,94747.13
2023-03-02T21:30:23.813Z,94728.66
2023-03-02T21:32:51.293Z,94713.03
2023-03-02T21:35:20.269Z,94725.91
2023-03-02T21:37:49.260Z,94720.31
2023-03-02T21:40:21.462Z,94714.81
2023-03-02T21:42:49.014Z,94717.75
2023-03-02T21:45:16.007Z,94722.09
2023-03-02T21:47:43.346Z,94727.94
2023-03-02T21:50:15.429Z,94738.63
2023-03-02T21:52:42.195Z,94727.88
2023-03-02T21:55:13.323Z,94720.78
2023-03-02T21:57:40.750Z,94718.13
2023-03-02T22:00:10.111Z,94719.75
2023-03-02T22:02:37.737Z,94729.75
2023-03-02T22:05:04.799Z,94717.47
2023-03-02T22:07:31.893Z,94729.31
2023-03-02T22:09:58.952Z,94724.41
2023-03-02T22:12:26.244Z,94719.47
2023-03-02T22:14:59.471Z,94715.84
2023-03-02T22:17:26.245Z,94718.25
2023-03-02T22:19:53.045Z,94729.00
2023-03-02T22:22:37.861Z,94736.97
2023-03-02T22:25:14.608Z,94736.22
2023-03-02T22:27:42.415Z,94723.53
2023-03-02T22:30:20.099Z,94735.66
2023-03-02T22:32:48.064Z,94752.84
2023-03-02T22:35:23.228Z,94734.72
2023-03-02T22:37:52.024Z,94748.22
2023-03-02T22:40:18.743Z,94746.34
2023-03-02T22:42:45.481Z,94761.81
2023-03-02T22:45:14.866Z,94772.47
2023-03-02T22:47:43.281Z,94772.47
2023-03-02T22:50:12.975Z,94776.09
2023-03-02T22:52:41.828Z,94781.75
2023-03-02T22:55:30.461Z,94784.38
2023-03-02T22:57:57.306Z,94794.91
2023-03-02T23:00:34.889Z,94796.00
2023-03-02T23:03:01.819Z,94800.69
2023-03-02T23:05:34.733Z,94799.63
2023-03-02T23:08:26.590Z,94800.69
2023-03-02T23:10:57.870Z,94807.88
2023-03-02T23:13:30.542Z,94801.06
2023-03-02T23:15:57.661Z,94797.44
2023-03-02T23:18:27.747Z,94794.69
2023-03-02T23:20:55.406Z,94798.81
2023-03-02T23:23:24.852Z,94791.09
2023-03-02T23:25:51.805Z,94798.00
2023-03-02T23:28:18.671Z,94789.78
2023-03-02T23:30:45.482Z,94800.81
2023-03-02T23:33:12.224Z,94792.84
2023-03-02T23:35:40.030Z,94785.59
2023-03-02T23:38:06.857Z,94778.75
2023-03-02T23:40:33.913Z,94792.78
2023-03-02T23:43:00.884Z,94792.56
2023-03-02T23:45:27.645Z,94799.75
2023-03-02T23:47:55.140Z,94796.31
2023-03-02T23:50:21.897Z,94803.03
2023-03-02T23:52:49.276Z,94794.25
2023-03-02T23:55:16.298Z,94803.31
2023-03-02T23:57:42.978Z,94799.75
